Time;durP1;ratioP1;P1;durP2;ratioP2;P2;SDS_P1;SDS_P2;PMS_P1;PMS_P2;Temp;Humidity;BMP_temperature;BMP_pressure;BME280_temperature;BME280_humidity;BME280_pressure;Samples;Min_cycle;Max_cycle;Signal;HPM_P1;HPM_P2
2023/12/01 00:00:25;;;;;;;0.97;0.97;;;;;;;4.87;100.00;99669.41;4980060;28;20228;-78
2023/12/01 00:02:53;;;;;;;1.10;1.10;;;;;;;4.63;100.00;99642.09;4995697;28;20197;-77
2023/12/01 00:05:20;;;;;;;5.30;1.20;;;;;;;4.60;100.00;99657.41;5013957;28;20676;-77
2023/12/01 00:07:47;;;;;;;1.73;1.73;;;;;;;4.40;100.00;99654.19;5013247;28;20244;-77
2023/12/01 00:10:14;;;;;;;1.73;1.63;;;;;;;4.49;100.00;99662.22;5013154;28;20207;-77
2023/12/01 00:12:41;;;;;;;1.43;1.33;;;;;;;4.47;100.00;99666.41;5013130;28;20204;-77
2023/12/01 00:15:08;;;;;;;1.03;1.03;;;;;;;4.54;100.00;99662.34;5014065;28;20259;-76
2023/12/01 00:17:35;;;;;;;0.90;0.90;;;;;;;4.58;100.00;99677.00;5013417;28;20583;-76
2023/12/01 00:20:04;;;;;;;1.30;1.30;;;;;;;4.56;100.00;99669.28;5013335;28;20696;-76
2023/12/01 00:22:31;;;;;;;1.10;1.10;;;;;;;4.60;100.00;99694.25;5013301;28;20197;-77
2023/12/01 00:25:08;;;;;;;1.63;1.63;;;;;;;4.46;100.00;99670.66;5013663;28;20209;-77
2023/12/01 00:27:35;;;;;;;1.50;1.40;;;;;;;4.45;100.00;99681.78;5013582;28;20582;-76
2023/12/01 00:30:02;;;;;;;1.67;1.57;;;;;;;4.45;100.00;99693.72;5013223;28;20259;-76
2023/12/01 00:32:29;;;;;;;3.80;1.80;;;;;;;4.30;100.00;99693.22;5011962;28;20204;-77
2023/12/01 00:34:56;;;;;;;1.40;1.40;;;;;;;4.31;100.00;99695.84;5013393;28;20204;-76
2023/12/01 00:37:24;;;;;;;1.60;1.50;;;;;;;4.32;100.00;99695.00;4994948;28;20189;-77
2023/12/01 00:39:50;;;;;;;1.17;1.17;;;;;;;4.29;100.00;99694.03;5012732;28;20227;-76
2023/12/01 00:42:17;;;;;;;1.40;1.40;;;;;;;4.45;100.00;99683.47;5012775;28;20208;-76
2023/12/01 00:44:45;;;;;;;1.17;1.17;;;;;;;4.27;100.00;99663.22;5012057;28;20208;-76
2023/12/01 00:47:12;;;;;;;0.90;0.90;;;;;;;4.36;100.00;99698.53;5012825;28;20676;-76
2023/12/01 00:49:38;;;;;;;1.93;1.87;;;;;;;4.39;100.00;99689.25;4994280;28;20669;-76
2023/12/01 00:52:06;;;;;;;1.87;1.77;;;;;;;4.39;100.00;99681.56;5012639;28;20212;-78
2023/12/01 00:54:34;;;;;;;1.87;1.87;;;;;;;3.95;100.00;99604.84;5011026;28;20216;-78
2023/12/01 00:57:00;;;;;;;1.30;1.30;;;;;;;4.25;100.00;99669.09;5014483;28;20205;-77
2023/12/01 00:59:27;;;;;;;0.87;0.87;;;;;;;4.26;100.00;99658.00;5011663;28;20943;-77
2023/12/01 01:01:54;;;;;;;1.00;1.00;;;;;;;4.26;100.00;99668.28;5014313;28;20628;-78
2023/12/01 01:04:21;;;;;;;1.70;1.53;;;;;;;4.13;100.00;99671.25;5012129;28;20205;-77
2023/12/01 01:06:47;;;;;;;0.97;0.97;;;;;;;4.08;100.00;99665.97;5013585;28;20215;-77
2023/12/01 01:09:14;;;;;;;1.20;1.20;;;;;;;3.83;100.00;99624.91;4995094;28;20204;-78
2023/12/01 01:11:42;;;;;;;1.27;1.27;;;;;;;4.09;100.00;99679.66;4974959;28;20198;-77
2023/12/01 01:14:09;;;;;;;0.87;0.87;;;;;;;4.09;100.00;99680.53;5011072;28;20203;-77
2023/12/01 01:16:36;;;;;;;2.37;2.20;;;;;;;4.16;100.00;99663.66;5012218;28;20276;-77
2023/12/01 01:19:03;;;;;;;1.50;1.40;;;;;;;4.02;100.00;99659.75;5013436;28;20221;-77
2023/12/01 01:21:29;;;;;;;0.90;0.90;;;;;;;3.97;100.00;99646.78;5012594;28;20243;-77
2023/12/01 01:23:56;;;;;;;1.67;1.60;;;;;;;4.15;100.00;99657.66;5012920;28;20616;-78
2023/12/01 01:26:23;;;;;;;1.13;1.13;;;;;;;4.15;100.00;99660.22;5012874;28;20656;-78
2023/12/01 01:28:51;;;;;;;0.97;0.97;;;;;;;4.17;100.00;99661.16;5013418;28;20201;-78
2023/12/01 01:31:18;;;;;;;1.10;1.10;;;;;;;4.07;100.00;99633.44;5012289;28;20197;-77
2023/12/01 01:33:44;;;;;;;1.00;1.00;;;;;;;4.06;100.00;99652.22;5012482;28;20236;-77
2023/12/01 01:36:11;;;;;;;0.90;0.90;;;;;;;4.08;100.00;99650.56;5012129;28;20573;-76
2023/12/01 01:38:40;;;;;;;1.53;1.53;;;;;;;3.97;100.00;99651.91;5012259;28;20193;-77
2023/12/01 01:41:07;;;;;;;0.80;0.80;;;;;;;3.93;100.00;99621.84;5011935;28;20693;-77
2023/12/01 01:43:34;;;;;;;0.97;0.97;;;;;;;3.96;100.00;99633.06;5012289;28;20208;-77
2023/12/01 01:46:07;;;;;;;1.00;1.00;;;;;;;4.06;100.00;99636.84;5012065;28;20219;-77
2023/12/01 01:48:35;;;;;;;1.43;1.33;;;;;;;4.07;100.00;99636.00;5009757;28;20274;-78
2023/12/01 01:51:02;;;;;;;1.00;1.00;;;;;;;3.95;100.00;99617.66;5010295;28;20205;-77
2023/12/01 01:53:29;;;;;;;0.80;0.80;;;;;;;3.68;100.00;99584.25;4994059;28;20209;-77
2023/12/01 01:55:58;;;;;;;2.07;1.97;;;;;;;4.05;100.00;99629.09;4958398;28;20210;-77
2023/12/01 01:58:25;;;;;;;1.27;1.27;;;;;;;3.97;100.00;99636.50;5011794;28;20700;-78
2023/12/01 02:00:52;;;;;;;2.17;2.07;;;;;;;3.71;100.00;99611.69;4993663;28;20303;-77
2023/12/01 02:03:21;;;;;;;1.00;1.00;;;;;;;3.80;100.00;99630.81;5011418;28;20300;-78
2023/12/01 02:05:48;;;;;;;3.40;3.17;;;;;;;3.67;100.00;99604.72;5012044;28;20204;-77
2023/12/01 02:08:26;;;;;;;4.40;4.10;;;;;;;3.83;100.00;99614.66;5012196;28;20295;-77
2023/12/01 02:10:54;;;;;;;1.43;1.43;;;;;;;3.53;100.00;99564.94;5011421;28;20216;-77
2023/12/01 02:13:21;;;;;;;1.53;1.53;;;;;;;3.64;100.00;99615.72;5011770;28;20200;-77
2023/12/01 02:15:48;;;;;;;5.43;1.87;;;;;;;3.56;100.00;99593.22;5012066;28;20201;-77
2023/12/01 02:18:24;;;;;;;0.90;0.90;;;;;;;3.77;100.00;99602.53;5011620;28;20229;-77
2023/12/01 02:20:52;;;;;;;2.03;1.93;;;;;;;3.76;100.00;99590.53;4993361;28;20227;-77
2023/12/01 02:23:21;;;;;;;1.50;1.50;;;;;;;3.63;100.00;99556.72;5011958;28;20579;-77
2023/12/01 02:25:48;;;;;;;1.30;1.23;;;;;;;3.71;100.00;99596.31;5011983;28;20600;-77
2023/12/01 02:28:15;;;;;;;1.83;1.83;;;;;;;3.81;100.00;99603.50;5011334;28;20201;-78
2023/12/01 02:30:44;;;;;;;1.57;1.57;;;;;;;3.81;100.00;99586.44;5011698;28;20211;-78
2023/12/01 02:33:15;;;;;;;1.43;1.43;;;;;;;3.83;100.00;99596.72;5010853;28;20292;-77
2023/12/01 02:35:46;;;;;;;1.40;1.40;;;;;;;3.89;100.00;99586.66;5011315;28;20232;-77
2023/12/01 02:38:12;;;;;;;7.37;4.03;;;;;;;3.85;100.00;99582.28;5011774;28;20200;-77
2023/12/01 02:40:43;;;;;;;3.63;3.37;;;;;;;3.46;100.00;99477.59;5012223;28;20228;-78
2023/12/01 02:43:11;;;;;;;1.00;1.00;;;;;;;4.00;100.00;99575.94;5011546;28;20211;-77
2023/12/01 02:45:37;;;;;;;1.73;1.70;;;;;;;3.99;100.00;99571.63;5011028;28;20197;-79
2023/12/01 02:48:05;;;;;;;2.00;2.00;;;;;;;3.97;100.00;99590.34;5012761;28;20207;-78
2023/12/01 02:50:32;;;;;;;1.30;1.30;;;;;;;3.93;100.00;99570.56;5011992;28;20205;-80
2023/12/01 02:52:59;;;;;;;1.33;1.33;;;;;;;4.01;100.00;99589.63;5011210;28;20219;-80
2023/12/01 02:55:25;;;;;;;1.47;1.47;;;;;;;3.94;100.00;99600.50;5010233;28;20208;-79
2023/12/01 02:57:54;;;;;;;1.40;1.40;;;;;;;4.04;100.00;99597.44;5016052;28;20208;-78
2023/12/01 03:00:22;;;;;;;1.93;1.83;;;;;;;4.12;100.00;99595.13;5015868;28;20229;-77
2023/12/01 03:02:51;;;;;;;1.93;1.83;;;;;;;4.16;100.00;99587.56;4982171;28;20229;-78
2023/12/01 03:05:18;;;;;;;1.87;1.83;;;;;;;4.12;100.00;99593.44;5016367;28;20209;-77
2023/12/01 03:07:45;;;;;;;1.30;1.30;;;;;;;4.06;100.00;99585.53;5016247;28;20666;-77
2023/12/01 03:10:12;;;;;;;1.73;1.73;;;;;;;4.18;100.00;99585.91;5016717;28;20199;-78
2023/12/01 03:12:40;;;;;;;1.10;1.10;;;;;;;4.25;100.00;99562.19;5013872;28;20763;-77
2023/12/01 03:15:11;;;;;;;1.47;1.33;;;;;;;4.19;100.00;99551.75;5015218;28;20216;-77
2023/12/01 03:17:38;;;;;;;1.67;1.57;;;;;;;4.33;100.00;99582.97;5015336;28;20216;-77
2023/12/01 03:20:10;;;;;;;1.13;1.13;;;;;;;4.34;100.00;99577.03;5016309;28;20225;-78
2023/12/01 03:22:38;;;;;;;1.73;1.73;;;;;;;4.38;100.00;99564.34;4998741;28;20219;-79
2023/12/01 03:25:09;;;;;;;2.13;1.57;;;;;;;4.34;100.00;99562.50;5015565;28;20280;-78
2023/12/01 03:27:39;;;;;;;2.47;2.37;;;;;;;4.41;100.00;99563.56;5010277;28;20220;-78
2023/12/01 03:30:19;;;;;;;5.97;1.47;;;;;;;3.96;100.00;99511.66;5014703;28;20197;-79
2023/12/01 03:32:48;;;;;;;1.10;1.10;;;;;;;3.98;100.00;99548.50;5014319;28;20597;-77
2023/12/01 03:35:16;;;;;;;1.00;1.00;;;;;;;3.98;100.00;99566.47;5014657;28;20283;-78
2023/12/01 03:37:44;;;;;;;0.97;0.97;;;;;;;4.18;100.00;99591.06;5014726;28;20193;-79
2023/12/01 03:40:12;;;;;;;0.93;0.93;;;;;;;3.83;100.00;99515.56;5014634;28;20351;-78
2023/12/01 03:42:41;;;;;;;1.10;1.10;;;;;;;3.95;100.00;99545.84;5015143;28;20224;-78
2023/12/01 03:45:12;;;;;;;3.03;1.33;;;;;;;4.06;100.00;99575.28;5014368;28;20207;-78
2023/12/01 03:47:39;;;;;;;2.40;2.30;;;;;;;4.13;100.00;99555.81;5018923;28;20209;-77
2023/12/01 03:50:11;;;;;;;1.20;1.20;;;;;;;4.11;100.00;99566.03;5014749;28;20646;-78
2023/12/01 03:52:42;;;;;;;1.33;1.33;;;;;;;4.13;100.00;99573.78;5014703;28;20279;-78
2023/12/01 03:55:10;;;;;;;2.57;2.37;;;;;;;3.94;100.00;99542.41;5014068;28;20235;-78
2023/12/01 03:57:36;;;;;;;1.03;1.03;;;;;;;4.14;100.00;99570.41;5014279;28;20228;-78
2023/12/01 04:00:08;;;;;;;1.40;1.40;;;;;;;4.14;100.00;99558.41;5014455;28;20211;-78
2023/12/01 04:02:40;;;;;;;2.40;2.30;;;;;;;4.06;100.00;99575.28;5013622;28;20263;-78
2023/12/01 04:05:08;;;;;;;1.67;1.60;;;;;;;4.11;100.00;99563.47;5013750;28;20197;-78
2023/12/01 04:07:35;;;;;;;2.07;1.97;;;;;;;3.68;100.00;99521.84;5013936;28;20209;-79
2023/12/01 04:10:10;;;;;;;1.20;1.20;;;;;;;3.76;100.00;99518.75;4995906;28;20201;-78
2023/12/01 04:12:40;;;;;;;0.90;0.90;;;;;;;3.96;100.00;99555.25;5013732;28;20192;-78
2023/12/01 04:15:08;;;;;;;1.43;1.43;;;;;;;3.90;100.00;99552.50;5013458;28;20538;-78
2023/12/01 04:17:35;;;;;;;1.63;1.57;;;;;;;3.89;100.00;99559.31;4995511;28;20209;-78
2023/12/01 04:20:20;;;;;;;1.47;1.37;;;;;;;3.84;100.00;99542.06;5013827;28;20338;-78
2023/12/01 04:22:48;;;;;;;2.70;2.50;;;;;;;3.76;100.00;99523.88;4994285;28;20809;-78
2023/12/01 04:25:15;;;;;;;2.53;2.43;;;;;;;3.65;100.00;99522.63;5011834;28;20201;-78
2023/12/01 04:27:42;;;;;;;1.00;1.00;;;;;;;3.91;100.00;99550.00;5013887;28;20201;-77
2023/12/01 04:30:14;;;;;;;1.50;1.50;;;;;;;3.92;100.00;99546.59;5013023;28;20204;-77
2023/12/01 04:32:41;;;;;;;2.40;2.30;;;;;;;3.83;100.00;99555.69;5012678;28;20201;-77
2023/12/01 04:35:10;;;;;;;1.00;1.00;;;;;;;3.98;100.00;99546.81;5012793;28;20244;-77
2023/12/01 04:37:37;;;;;;;1.70;1.70;;;;;;;3.86;100.00;99553.22;4979261;28;20288;-77
2023/12/01 04:40:13;;;;;;;1.00;1.00;;;;;;;3.90;100.00;99549.94;4978182;28;20219;-77
2023/12/01 04:42:40;;;;;;;1.40;1.40;;;;;;;3.90;100.00;99544.81;4980495;28;20326;-77
2023/12/01 04:45:11;;;;;;;1.43;1.43;;;;;;;3.92;100.00;99546.59;5012378;28;20201;-77
2023/12/01 04:47:39;;;;;;;1.57;1.37;;;;;;;3.84;100.00;99529.25;5013084;28;20209;-79
2023/12/01 04:50:13;;;;;;;2.07;1.97;;;;;;;3.70;100.00;99513.41;5012981;28;20216;-79
2023/12/01 04:52:43;;;;;;;3.50;3.20;;;;;;;3.74;100.00;99524.66;5012791;28;20204;-79
2023/12/01 04:55:13;;;;;;;2.17;2.07;;;;;;;3.77;100.00;99550.38;5013144;28;20232;-77
2023/12/01 04:57:40;;;;;;;1.00;1.00;;;;;;;3.86;100.00;99545.53;5011269;28;20205;-77
2023/12/01 05:00:19;;;;;;;1.03;1.03;;;;;;;3.76;100.00;99546.06;5006544;28;20634;-78
2023/12/01 05:02:47;;;;;;;1.60;1.60;;;;;;;3.84;100.00;99529.25;4993808;28;20228;-78
2023/12/01 05:05:16;;;;;;;1.20;1.20;;;;;;;3.44;100.00;99509.97;5010261;28;20579;-78
2023/12/01 05:07:43;;;;;;;1.37;1.37;;;;;;;3.77;100.00;99535.00;5008603;28;20197;-79
2023/12/01 05:10:14;;;;;;;2.50;2.40;;;;;;;3.56;100.00;99478.78;5011872;28;20208;-78
2023/12/01 05:12:42;;;;;;;0.90;0.90;;;;;;;3.98;100.00;99534.00;5011224;28;20197;-79
2023/12/01 05:15:15;;;;;;;2.77;2.50;;;;;;;3.88;100.00;99546.47;5012456;28;20292;-79
2023/12/01 05:17:43;;;;;;;1.77;1.67;;;;;;;3.91;100.00;99538.88;5008762;28;20229;-78
2023/12/01 05:20:15;;;;;;;1.50;1.50;;;;;;;3.92;100.00;99532.94;5023596;28;20267;-78
2023/12/01 05:22:44;;;;;;;1.63;1.63;;;;;;;3.89;100.00;99531.13;5006677;28;20720;-78
2023/12/01 05:25:13;;;;;;;1.10;1.10;;;;;;;3.72;100.00;99501.50;5012667;28;20211;-78
2023/12/01 05:27:45;;;;;;;1.30;1.30;;;;;;;3.75;100.00;99505.84;5010730;28;20201;-78
2023/12/01 05:30:16;;;;;;;2.37;2.27;;;;;;;3.99;100.00;99522.06;4997625;28;20236;-78
2023/12/01 05:32:44;;;;;;;1.80;1.80;;;;;;;3.66;100.00;99462.00;5009017;28;20209;-78
2023/12/01 05:35:13;;;;;;;1.40;1.40;;;;;;;4.00;100.00;99523.78;5005129;28;20197;-78
2023/12/01 05:37:41;;;;;;;2.60;2.50;;;;;;;3.98;100.00;99528.00;5011534;28;20656;-79
2023/12/01 05:40:14;;;;;;;1.10;1.10;;;;;;;3.89;100.00;99502.03;5011725;28;20589;-78
2023/12/01 05:42:42;;;;;;;1.10;1.10;;;;;;;4.15;100.00;99518.25;4976183;28;20228;-79
2023/12/01 05:45:11;;;;;;;3.17;3.07;;;;;;;4.06;100.00;99513.72;5009496;28;20753;-78
2023/12/01 05:47:43;;;;;;;1.03;1.03;;;;;;;4.13;100.00;99518.22;5011970;28;20264;-78
2023/12/01 05:50:14;;;;;;;9.07;3.93;;;;;;;4.24;100.00;99521.13;4993003;28;20262;-78
2023/12/01 05:52:42;;;;;;;1.93;1.83;;;;;;;4.16;100.00;99515.75;5011969;28;20239;-79
2023/12/01 05:55:15;;;;;;;1.80;1.80;;;;;;;3.97;100.00;99480.97;5011810;28;20673;-78
2023/12/01 05:57:45;;;;;;;1.60;1.60;;;;;;;4.35;100.00;99512.91;5012224;28;20656;-79
2023/12/01 06:00:15;;;;;;;5.97;3.47;;;;;;;4.42;100.00;99508.84;5012795;28;20208;-79
2023/12/01 06:02:42;;;;;;;2.03;2.00;;;;;;;4.68;100.00;99504.47;5011628;28;20259;-81
2023/12/01 06:05:11;;;;;;;1.20;1.20;;;;;;;4.65;100.00;99515.53;5012434;28;20216;-80
2023/12/01 06:07:38;;;;;;;1.57;1.57;;;;;;;4.68;100.00;99502.78;5026188;28;20294;-81
2023/12/01 06:10:06;;;;;;;1.57;1.57;;;;;;;4.64;100.00;99515.50;5024097;28;20224;-71
2023/12/01 06:12:34;;;;;;;3.37;2.47;;;;;;;4.87;100.00;99471.66;5008952;28;20332;-71
2023/12/01 06:15:01;;;;;;;1.20;1.20;;;;;;;5.09;100.00;99485.09;5002116;28;20196;-82
2023/12/01 06:17:27;;;;;;;2.50;2.23;;;;;;;4.93;100.00;99463.25;5010288;28;20212;-83
2023/12/01 06:19:54;;;;;;;2.60;2.00;;;;;;;5.03;100.00;99485.78;4991869;28;20243;-83
2023/12/01 06:22:21;;;;;;;1.33;1.30;;;;;;;5.23;100.00;99504.31;5012205;28;20224;-83
2023/12/01 06:24:48;;;;;;;1.00;1.00;;;;;;;5.43;100.00;99490.28;5010638;28;20205;-80
2023/12/01 06:27:14;;;;;;;1.60;1.50;;;;;;;5.31;100.00;99478.00;4986496;28;20205;-84
2023/12/01 06:29:43;;;;;;;2.40;2.30;;;;;;;5.50;100.00;99516.19;4972944;28;20212;-80
2023/12/01 06:32:10;;;;;;;1.77;1.37;;;;;;;5.29;100.00;99478.75;5014797;28;20196;-79
2023/12/01 06:34:37;;;;;;;1.67;1.67;;;;;;;5.56;100.00;99505.19;5015430;28;20632;-73
2023/12/01 06:37:03;;;;;;;3.50;1.47;;;;;;;5.50;100.00;99500.75;5014401;28;20227;-73
2023/12/01 06:39:30;;;;;;;1.13;1.13;;;;;;;4.98;100.00;99429.16;5002324;28;20644;-77
2023/12/01 06:41:57;;;;;;;1.43;1.43;;;;;;;5.62;100.00;99509.59;4991526;28;20252;-79
2023/12/01 06:44:24;;;;;;;3.30;3.10;;;;;;;5.33;100.00;99448.06;4996110;28;20217;-80
2023/12/01 06:46:52;;;;;;;1.23;1.23;;;;;;;5.99;100.00;99522.59;5009323;28;20212;-79
2023/12/01 06:49:19;;;;;;;1.67;1.57;;;;;;;5.96;100.00;99530.22;5004171;28;20239;-78
2023/12/01 06:51:46;;;;;;;1.37;1.37;;;;;;;6.10;100.00;99526.25;5015385;28;20696;-82
2023/12/01 06:54:13;;;;;;;1.00;1.00;;;;;;;5.90;100.00;99524.94;5015532;28;20585;-79
2023/12/01 06:56:40;;;;;;;2.60;2.43;;;;;;;6.04;100.00;99530.41;4994870;28;20208;-78
2023/12/01 06:59:06;;;;;;;3.40;2.13;;;;;;;6.25;100.00;99525.75;5003254;28;20681;-78
2023/12/01 07:01:35;;;;;;;1.40;1.40;;;;;;;6.27;100.00;99535.28;5008840;28;20735;-78
2023/12/01 07:04:07;;;;;;;2.10;1.83;;;;;;;6.56;100.00;99532.47;5014936;28;20204;-80
2023/12/01 07:06:35;;;;;;;1.63;1.57;;;;;;;6.52;100.00;99513.53;4978433;28;20201;-80
2023/12/01 07:09:03;;;;;;;1.80;1.80;;;;;;;6.46;100.00;99527.13;5013373;28;20201;-81
2023/12/01 07:11:30;;;;;;;1.20;1.20;;;;;;;6.57;100.00;99529.03;5014311;28;20201;-80
2023/12/01 07:13:57;;;;;;;4.27;2.07;;;;;;;6.49;100.00;99536.63;5014943;28;20673;-81
2023/12/01 07:16:23;;;;;;;2.97;2.63;;;;;;;6.97;100.00;99517.03;5023688;28;20677;-79
2023/12/01 07:18:51;;;;;;;1.37;1.37;;;;;;;6.72;100.00;99524.22;5015086;28;20225;-80
2023/12/01 07:21:19;;;;;;;1.37;1.37;;;;;;;6.51;100.00;99492.88;5011865;28;20280;-79
2023/12/01 07:23:47;;;;;;;2.60;2.47;;;;;;;6.77;100.00;99528.66;5014772;28;20227;-79
2023/12/01 07:26:13;;;;;;;1.70;1.50;;;;;;;6.70;100.00;99520.78;4980864;28;20225;-79
2023/12/01 07:28:41;;;;;;;3.90;1.53;;;;;;;6.98;100.00;99533.38;5014787;28;20688;-69
2023/12/01 07:31:08;;;;;;;1.73;1.73;;;;;;;7.22;100.00;99499.47;5012593;28;20201;-79
2023/12/01 07:33:35;;;;;;;2.73;2.50;;;;;;;6.81;100.00;99530.44;4985168;28;20205;-78
2023/12/01 07:36:02;;;;;;;6.93;2.87;;;;;;;6.71;100.00;99504.44;5009739;28;20597;-78
2023/12/01 07:38:30;;;;;;;1.67;1.67;;;;;;;6.74;100.00;99520.00;4996155;28;20654;-79
2023/12/01 07:40:56;;;;;;;3.00;2.07;;;;;;;6.65;100.00;99512.94;5013781;28;20205;-79
2023/12/01 07:43:23;;;;;;;1.80;1.77;;;;;;;6.60;100.00;99531.72;5013039;28;20307;-79
2023/12/01 07:45:50;;;;;;;2.20;2.00;;;;;;;6.47;100.00;99528.84;5009275;28;20216;-79
2023/12/01 07:48:17;;;;;;;2.87;2.70;;;;;;;6.60;100.00;99519.69;5007280;28;20200;-79
2023/12/01 07:50:45;;;;;;;5.60;2.07;;;;;;;6.72;100.00;99513.94;5005795;28;20212;-80
2023/12/01 07:53:12;;;;;;;8.00;1.57;;;;;;;6.76;100.00;99519.19;5003150;28;20209;-78
2023/12/01 07:55:42;;;;;;;2.20;1.87;;;;;;;6.77;100.00;99523.50;4996107;28;20239;-80
2023/12/01 07:58:09;;;;;;;1.50;1.50;;;;;;;6.48;100.00;99504.84;5014998;28;20209;-78
2023/12/01 08:00:40;;;;;;;1.00;1.00;;;;;;;6.62;100.00;99483.66;5004488;28;20225;-79
2023/12/01 08:03:08;;;;;;;2.93;2.03;;;;;;;6.91;100.00;99490.28;5014626;28;20228;-78
2023/12/01 08:05:36;;;;;;;2.93;1.73;;;;;;;7.20;100.00;99522.66;5005895;28;20236;-80
2023/12/01 08:08:03;;;;;;;1.10;1.10;;;;;;;7.19;100.00;99513.19;5016301;28;20664;-79
2023/12/01 08:10:30;;;;;;;0.80;0.80;;;;;;;7.05;100.00;99524.94;5013831;28;20216;-78
2023/12/01 08:12:58;;;;;;;2.23;2.03;;;;;;;7.14;100.00;99512.22;5013758;28;20205;-77
2023/12/01 08:15:25;;;;;;;1.90;1.80;;;;;;;7.17;100.00;99530.31;5013444;28;20209;-79
2023/12/01 08:17:52;;;;;;;1.27;1.27;;;;;;;7.19;100.00;99508.03;5012275;28;20263;-78
2023/12/01 08:20:19;;;;;;;3.53;3.33;;;;;;;7.24;100.00;99529.59;5013031;28;20676;-78
2023/12/01 08:22:47;;;;;;;2.17;1.97;;;;;;;7.18;100.00;99521.75;5007511;28;20224;-79
2023/12/01 08:25:14;;;;;;;2.10;1.33;;;;;;;7.25;100.00;99508.13;5022782;28;20226;-80
2023/12/01 08:27:41;;;;;;;1.83;1.73;;;;;;;7.33;100.00;99516.88;5016791;28;20259;-79
2023/12/01 08:30:11;;;;;;;1.83;1.83;;;;;;;7.32;100.00;99498.78;5013156;28;20205;-79
2023/12/01 08:32:38;;;;;;;2.23;1.80;;;;;;;7.35;100.00;99516.91;5012941;28;20291;-80
2023/12/01 08:35:06;;;;;;;1.80;1.70;;;;;;;7.62;100.00;99524.28;5013117;28;20302;-78
2023/12/01 08:37:33;;;;;;;2.17;2.00;;;;;;;7.44;100.00;99505.06;5012453;28;20197;-79
2023/12/01 08:39:59;;;;;;;1.47;1.47;;;;;;;7.17;100.00;99522.56;5009690;28;20212;-82
2023/12/01 08:42:26;;;;;;;2.57;2.37;;;;;;;7.46;100.00;99507.66;5013660;28;20677;-81
2023/12/01 08:44:53;;;;;;;1.00;1.00;;;;;;;7.71;100.00;99509.81;5004697;28;20219;-81
2023/12/01 08:47:21;;;;;;;2.60;2.40;;;;;;;7.66;100.00;99501.16;5013742;28;20571;-79
2023/12/01 08:49:50;;;;;;;2.40;2.20;;;;;;;7.86;100.00;99493.72;4994521;28;20204;-78
2023/12/01 08:52:17;;;;;;;1.17;1.17;;;;;;;7.77;100.00;99457.47;5012083;28;20209;-78
2023/12/01 08:54:44;;;;;;;2.20;2.07;;;;;;;7.91;100.00;99492.09;5017354;28;20209;-77
2023/12/01 08:57:11;;;;;;;3.03;2.50;;;;;;;7.93;100.00;99492.97;5000279;28;20599;-77
2023/12/01 08:59:38;;;;;;;1.93;1.93;;;;;;;7.87;100.00;99485.16;5007112;28;20869;-77
2023/12/01 09:02:05;;;;;;;1.80;1.70;;;;;;;7.78;100.00;99492.72;5012481;28;20209;-78
2023/12/01 09:04:33;;;;;;;1.70;1.70;;;;;;;7.71;100.00;99486.59;5010097;28;20216;-77
2023/12/01 09:07:00;;;;;;;2.27;2.17;;;;;;;7.81;100.00;99490.22;5005293;28;20204;-77
2023/12/01 09:09:27;;;;;;;1.10;1.10;;;;;;;7.62;100.00;99480.44;5015039;28;20205;-76
2023/12/01 09:11:54;;;;;;;1.43;1.43;;;;;;;7.84;100.00;99506.63;5014637;28;20200;-76
2023/12/01 09:14:21;;;;;;;1.37;1.37;;;;;;;7.74;100.00;99509.03;4966530;28;20217;-76
2023/12/01 09:16:47;;;;;;;1.03;1.03;;;;;;;7.80;100.00;99478.16;5011352;28;20196;-77
2023/12/01 09:19:14;;;;;;;3.03;2.70;;;;;;;7.61;100.00;99473.53;5012672;28;20252;-77
2023/12/01 09:21:42;;;;;;;3.10;2.87;;;;;;;8.27;100.00;99504.72;4993453;28;20937;-77
2023/12/01 09:24:09;;;;;;;2.20;2.03;;;;;;;8.03;100.00;99491.41;5012046;28;20247;-78
2023/12/01 09:26:36;;;;;;;2.27;2.17;;;;;;;8.25;100.00;99499.50;5010561;28;20540;-78
2023/12/01 09:29:03;;;;;;;2.30;2.20;;;;;;;8.39;100.00;99487.69;5013243;28;20259;-79
2023/12/01 09:31:29;;;;;;;3.37;2.47;;;;;;;8.59;100.00;99511.25;5012055;28;20208;-79
2023/12/01 09:33:57;;;;;;;3.50;2.40;;;;;;;8.03;100.00;99476.78;5012035;28;20201;-79
2023/12/01 09:36:26;;;;;;;2.47;2.27;;;;;;;8.48;100.00;99496.44;5012098;28;20220;-79
2023/12/01 09:38:54;;;;;;;3.60;3.30;;;;;;;8.90;100.00;99491.81;5012138;28;20209;-79
2023/12/01 09:41:21;;;;;;;3.00;2.13;;;;;;;8.93;100.00;99491.84;5011727;28;20208;-79
2023/12/01 09:43:48;;;;;;;8.03;4.63;;;;;;;9.10;100.00;99500.66;5012191;28;20225;-80
2023/12/01 09:46:15;;;;;;;4.27;3.37;;;;;;;9.01;100.00;99472.13;5012658;28;20224;-79
2023/12/01 09:48:43;;;;;;;1.67;1.57;;;;;;;9.12;98.76;99496.38;4993878;28;20197;-79
2023/12/01 09:51:10;;;;;;;2.77;1.97;;;;;;;8.78;99.98;99496.81;5012425;28;20628;-78
2023/12/01 09:53:37;;;;;;;4.37;4.00;;;;;;;8.43;100.00;99450.72;5012756;28;20243;-79
2023/12/01 09:56:06;;;;;;;5.00;3.17;;;;;;;8.81;100.00;99484.78;5013053;28;20633;-78
2023/12/01 09:58:35;;;;;;;2.53;2.07;;;;;;;8.74;100.00;99459.72;5010960;28;20205;-79
2023/12/01 10:01:02;;;;;;;2.17;2.07;;;;;;;8.84;100.00;99481.41;5012498;28;20201;-78
2023/12/01 10:03:29;;;;;;;1.83;1.73;;;;;;;8.95;100.00;99475.50;4992895;28;20700;-78
2023/12/01 10:05:59;;;;;;;1.00;1.00;;;;;;;9.10;99.16;99476.50;5011824;28;20231;-78
2023/12/01 10:08:26;;;;;;;1.77;1.67;;;;;;;9.04;100.00;99476.44;5002889;28;20209;-78
2023/12/01 10:10:53;;;;;;;1.00;1.00;;;;;;;8.39;100.00;99472.19;5011723;28;20255;-77
2023/12/01 10:13:21;;;;;;;2.57;2.43;;;;;;;8.38;100.00;99475.63;5002125;28;20217;-79
2023/12/01 10:15:49;;;;;;;2.90;2.73;;;;;;;8.14;100.00;99459.75;5004923;28;20594;-78
2023/12/01 10:18:17;;;;;;;3.60;3.27;;;;;;;8.52;100.00;99469.78;5011425;28;20240;-78
2023/12/01 10:20:57;;;;;;;1.60;1.53;;;;;;;8.37;100.00;99442.91;5011285;28;20688;-77
2023/12/01 10:23:25;;;;;;;2.13;2.00;;;;;;;8.62;100.00;99477.69;5002290;28;20423;-78
2023/12/01 10:25:53;;;;;;;1.37;1.37;;;;;;;8.71;100.00;99448.47;5012025;28;20339;-78
2023/12/01 10:28:22;;;;;;;2.17;2.07;;;;;;;9.12;100.00;99452.44;5011682;28;20291;-78
2023/12/01 10:30:57;;;;;;;4.80;4.40;;;;;;;9.41;100.00;99461.34;5011889;28;20204;-78
2023/12/01 10:33:24;;;;;;;1.63;1.63;;;;;;;9.11;100.00;99470.50;5012073;28;20227;-78
2023/12/01 10:36:02;;;;;;;2.53;1.60;;;;;;;9.38;100.00;99461.28;4977498;28;20591;-78
2023/12/01 10:38:30;;;;;;;3.00;2.03;;;;;;;9.55;100.00;99450.25;5011289;28;20193;-78
2023/12/01 10:40:59;;;;;;;2.07;1.97;;;;;;;9.65;100.00;99439.13;5011705;28;20669;-78
2023/12/01 10:43:28;;;;;;;1.70;1.60;;;;;;;9.86;97.32;99408.22;5010582;28;20227;-78
2023/12/01 10:45:55;;;;;;;1.20;1.20;;;;;;;9.58;100.00;99426.97;5011301;28;20200;-72
2023/12/01 10:48:22;;;;;;;6.97;2.47;;;;;;;9.76;100.00;99416.78;5010969;28;20601;-74
2023/12/01 10:50:52;;;;;;;2.07;1.97;;;;;;;9.85;99.19;99406.47;5011564;28;20569;-78
2023/12/01 10:53:19;;;;;;;0.97;0.97;;;;;;;10.02;97.02;99435.97;5011452;28;20369;-78
2023/12/01 10:55:48;;;;;;;1.83;1.73;;;;;;;9.64;96.17;99427.91;4993226;28;20330;-78
2023/12/01 10:58:21;;;;;;;3.83;2.50;;;;;;;9.20;100.00;99422.34;5011026;28;20205;-77
2023/12/01 11:00:51;;;;;;;2.13;2.03;;;;;;;9.59;100.00;99439.06;5011223;28;20227;-77
2023/12/01 11:03:20;;;;;;;1.23;1.13;;;;;;;9.31;100.00;99420.69;5010558;28;20221;-77
2023/12/01 11:05:49;;;;;;;8.23;2.10;;;;;;;9.48;98.18;99404.47;5011494;28;20212;-77
2023/12/01 11:08:34;;;;;;;3.10;1.70;;;;;;;9.95;97.55;99449.72;5011137;28;20288;-75
2023/12/01 11:11:15;;;;;;;1.93;1.83;;;;;;;9.88;99.56;99438.44;4979096;28;20210;-78
2023/12/01 11:13:57;;;;;;;3.13;2.90;;;;;;;9.35;100.00;99443.16;5011058;28;20244;-77
2023/12/01 11:16:27;;;;;;;2.33;2.23;;;;;;;9.18;100.00;99441.25;4977952;28;20258;-77
2023/12/01 11:18:56;;;;;;;1.77;1.77;;;;;;;9.47;100.00;99450.19;5015083;28;20235;-77
2023/12/01 11:21:23;;;;;;;2.33;1.87;;;;;;;9.53;100.00;99413.13;5014620;28;20239;-76
2023/12/01 11:23:50;;;;;;;2.07;1.97;;;;;;;9.75;100.00;99421.09;5013757;28;20235;-69
2023/12/01 11:26:18;;;;;;;1.87;1.77;;;;;;;10.10;100.00;99423.91;5014301;28;20200;-74
2023/12/01 11:28:46;;;;;;;2.13;2.07;;;;;;;10.31;97.98;99424.06;5014420;28;20193;-76
2023/12/01 11:31:19;;;;;;;2.67;2.00;;;;;;;10.20;96.53;99420.53;5014760;28;20201;-77
2023/12/01 11:33:49;;;;;;;2.33;2.20;;;;;;;10.30;96.88;99422.34;5014192;28;20207;-78
2023/12/01 11:36:27;;;;;;;1.40;1.40;;;;;;;10.18;97.51;99427.44;5014566;28;20201;-78
2023/12/01 11:39:16;;;;;;;5.00;2.90;;;;;;;9.41;97.05;99311.28;5014363;28;20197;-78